createdAt,value
2023-04-29T00:00:07.217Z,33.08
2023-04-29T00:02:40.368Z,28.63
2023-04-29T00:05:07.642Z,33.78
2023-04-29T00:07:34.405Z,35.03
2023-04-29T00:10:01.090Z,29.45
2023-04-29T00:12:28.456Z,32.65
2023-04-29T00:14:54.947Z,30.85
2023-04-29T00:17:21.532Z,32.75
2023-04-29T00:19:48.197Z,33.33
2023-04-29T00:22:14.771Z,31.60
2023-04-29T00:24:41.294Z,36.70
2023-04-29T00:27:07.827Z,30.13
2023-04-29T00:29:34.329Z,30.65
2023-04-29T00:32:00.866Z,33.60
2023-04-29T00:34:27.492Z,28.98
2023-04-29T00:36:54.577Z,36.17
2023-04-29T00:39:21.787Z,34.88
2023-04-29T00:41:48.357Z,33.65
2023-04-29T00:44:14.943Z,29.50
2023-04-29T00:46:41.642Z,37.58
2023-04-29T00:49:08.536Z,32.85
2023-04-29T00:51:36.874Z,40.55
2023-04-29T00:54:05.129Z,36.08
2023-04-29T00:56:35.284Z,37.00
2023-04-29T00:59:03.237Z,38.42
2023-04-29T01:01:30.588Z,36.00
2023-04-29T01:03:58.386Z,40.13
2023-04-29T01:06:54.560Z,31.73
2023-04-29T01:09:35.647Z,36.97
2023-04-29T01:12:31.928Z,36.30
2023-04-29T01:15:24.289Z,34.72
2023-04-29T01:18:10.298Z,29.83
2023-04-29T01:20:38.719Z,30.33
2023-04-29T01:23:05.346Z,35.53
2023-04-29T01:25:32.198Z,33.72
2023-04-29T01:29:01.419Z,35.08
2023-04-29T01:31:32.547Z,33.40
2023-04-29T01:34:08.617Z,30.30
2023-04-29T01:36:52.380Z,34.80
2023-04-29T01:39:59.799Z,31.27
2023-04-29T01:42:46.000Z,36.15
2023-04-29T01:45:17.373Z,37.28
2023-04-29T01:47:46.859Z,33.83
2023-04-29T01:50:14.242Z,33.07
2023-04-29T01:52:41.236Z,28.75
2023-04-29T01:55:08.994Z,35.97
2023-04-29T01:57:42.676Z,37.25
2023-04-29T02:00:42.716Z,32.05
2023-04-29T02:03:10.247Z,32.63
2023-04-29T02:05:40.001Z,35.17
2023-04-29T02:08:07.832Z,32.83
2023-04-29T02:10:38.961Z,39.50
2023-04-29T02:13:16.188Z,33.97
2023-04-29T02:15:42.926Z,31.70
2023-04-29T02:18:09.838Z,35.30
2023-04-29T02:20:36.557Z,39.50
2023-04-29T02:23:05.269Z,33.72
2023-04-29T02:25:31.803Z,38.00
2023-04-29T02:27:58.891Z,33.03
2023-04-29T02:30:26.077Z,31.20
2023-04-29T02:32:53.178Z,33.03
2023-04-29T02:35:19.750Z,30.80
2023-04-29T02:37:47.194Z,31.17
2023-04-29T02:40:13.761Z,32.87
2023-04-29T02:42:40.304Z,26.20
2023-04-29T02:45:07.643Z,30.25
2023-04-29T02:47:34.146Z,31.27
2023-04-29T02:50:00.770Z,35.25
2023-04-29T02:52:27.309Z,26.70
2023-04-29T02:54:53.870Z,27.38
2023-04-29T02:57:21.007Z,27.85
2023-04-29T02:59:47.561Z,30.98
2023-04-29T03:02:14.976Z,30.38
2023-04-29T03:04:43.008Z,25.80
2023-04-29T03:07:09.535Z,29.35
2023-04-29T03:09:36.834Z,28.65
2023-04-29T03:12:03.637Z,26.67
2023-04-29T03:14:30.455Z,27.92
2023-04-29T03:16:58.685Z,27.00
2023-04-29T03:19:25.376Z,26.92
2023-04-29T03:21:53.802Z,25.95
2023-04-29T03:24:21.167Z,25.95
2023-04-29T03:26:47.736Z,23.20
2023-04-29T03:29:14.272Z,22.20
2023-04-29T03:31:40.879Z,23.92
2023-04-29T03:34:07.445Z,24.20
2023-04-29T03:36:38.333Z,25.02
2023-04-29T03:39:08.216Z,22.10
2023-04-29T03:41:35.952Z,25.30
2023-04-29T03:44:02.575Z,25.77
2023-04-29T03:46:29.747Z,22.38
2023-04-29T03:48:56.643Z,24.20
2023-04-29T03:51:27.286Z,24.92
2023-04-29T03:54:04.889Z,22.37
2023-04-29T03:56:31.436Z,22.85
2023-04-29T03:58:57.947Z,22.70
2023-04-29T04:01:26.302Z,22.23
2023-04-29T04:03:53.275Z,23.58
2023-04-29T04:06:20.091Z,21.27
2023-04-29T04:08:47.238Z,23.13
2023-04-29T04:11:17.914Z,23.30
2023-04-29T04:13:49.945Z,22.50
2023-04-29T04:16:17.193Z,21.13
2023-04-29T04:18:43.738Z,23.30
2023-04-29T04:21:11.996Z,24.85
2023-04-29T04:23:41.779Z,20.08
2023-04-29T04:26:10.778Z,24.27
2023-04-29T04:28:56.081Z,28.15
2023-04-29T04:31:41.451Z,28.43
2023-04-29T04:34:09.053Z,24.75
2023-04-29T04:36:35.852Z,26.95
2023-04-29T04:39:02.447Z,25.40
2023-04-29T04:41:31.605Z,26.30
2023-04-29T04:43:58.968Z,23.67
2023-04-29T04:46:44.213Z,23.88
2023-04-29T04:49:28.074Z,29.98
2023-04-29T04:51:54.826Z,28.98
2023-04-29T04:54:21.317Z,23.30
2023-04-29T04:56:52.255Z,29.50
2023-04-29T04:59:18.916Z,30.33
2023-04-29T05:01:45.736Z,27.55
2023-04-29T05:04:12.338Z,24.92
2023-04-29T05:06:39.178Z,25.98
2023-04-29T05:09:06.358Z,23.47
2023-04-29T05:11:34.563Z,26.73
2023-04-29T05:14:12.903Z,27.17
2023-04-29T05:16:39.429Z,24.13
2023-04-29T05:19:06.057Z,27.02
2023-04-29T05:21:36.648Z,26.93
2023-04-29T05:24:03.493Z,32.83
2023-04-29T05:26:30.047Z,23.75
2023-04-29T05:29:00.008Z,25.77
2023-04-29T05:31:28.507Z,28.20
2023-04-29T05:33:56.558Z,26.27
2023-04-29T05:36:24.465Z,26.88
2023-04-29T05:38:51.297Z,25.17
2023-04-29T05:41:18.410Z,26.20
2023-04-29T05:43:55.031Z,30.15
2023-04-29T05:46:23.225Z,27.03
2023-04-29T05:48:50.146Z,27.23
2023-04-29T05:51:17.444Z,29.63
2023-04-29T05:53:44.269Z,24.23
2023-04-29T05:56:11.014Z,29.58
2023-04-29T05:58:38.607Z,26.23
2023-04-29T06:01:05.189Z,24.58
2023-04-29T06:03:31.955Z,24.63
2023-04-29T06:06:19.075Z,25.52
2023-04-29T06:09:19.858Z,24.50
2023-04-29T06:11:50.957Z,29.93
2023-04-29T06:14:17.515Z,23.27
2023-04-29T06:16:44.083Z,24.08
2023-04-29T06:19:10.677Z,31.70
2023-04-29T06:21:37.316Z,23.42
2023-04-29T06:24:03.895Z,27.73
2023-04-29T06:26:30.536Z,28.17
2023-04-29T06:28:57.213Z,24.25
2023-04-29T06:31:23.904Z,25.20
2023-04-29T06:33:55.102Z,21.45
2023-04-29T06:36:21.796Z,25.03
2023-04-29T06:39:07.176Z,26.15
2023-04-29T06:41:58.844Z,25.80
2023-04-29T06:44:43.901Z,25.15
2023-04-29T06:47:33.782Z,24.02
2023-04-29T06:50:11.045Z,25.50
2023-04-29T06:52:37.622Z,25.55
2023-04-29T06:55:04.563Z,23.75
2023-04-29T06:57:32.127Z,24.17
2023-04-29T06:59:58.687Z,26.45
2023-04-29T07:02:25.448Z,22.77
2023-04-29T07:04:52.752Z,22.80
2023-04-29T07:07:19.433Z,22.65
2023-04-29T07:09:46.183Z,21.25
2023-04-29T07:12:12.792Z,19.67
2023-04-29T07:14:40.857Z,20.00
2023-04-29T07:17:08.091Z,21.52
2023-04-29T07:19:34.730Z,19.40
2023-04-29T07:22:01.312Z,19.05
2023-04-29T07:24:28.085Z,19.08
2023-04-29T07:26:54.580Z,16.30
2023-04-29T07:29:21.159Z,19.77
2023-04-29T07:31:47.747Z,17.17
2023-04-29T07:34:14.470Z,24.58
2023-04-29T07:36:41.077Z,19.92
2023-04-29T07:39:07.701Z,18.20
2023-04-29T07:41:34.290Z,22.63
2023-04-29T07:44:00.846Z,18.85
2023-04-29T07:46:27.453Z,17.58
2023-04-29T07:48:53.995Z,26.15
2023-04-29T07:51:21.744Z,15.37
2023-04-29T07:53:48.286Z,15.02
2023-04-29T07:56:14.845Z,16.10
2023-04-29T07:58:41.507Z,15.80
2023-04-29T08:01:09.245Z,15.98
2023-04-29T08:03:38.954Z,15.47
2023-04-29T08:06:07.673Z,17.65
2023-04-29T08:08:34.896Z,18.35
2023-04-29T08:11:01.446Z,16.00
2023-04-29T08:13:28.821Z,14.70
2023-04-29T08:15:55.453Z,17.47
2023-04-29T08:18:22.147Z,15.90
2023-04-29T08:20:49.495Z,14.68
2023-04-29T08:23:16.045Z,15.68
2023-04-29T08:25:44.003Z,15.18
2023-04-29T08:28:11.266Z,14.00
2023-04-29T08:30:41.739Z,16.17
2023-04-29T08:33:09.050Z,17.05
2023-04-29T08:35:39.050Z,11.73
2023-04-29T08:38:06.656Z,16.10
2023-04-29T08:40:44.218Z,14.10
2023-04-29T08:43:10.815Z,13.13
2023-04-29T08:45:37.701Z,13.10
2023-04-29T08:48:06.624Z,12.95
2023-04-29T08:50:41.689Z,14.15
2023-04-29T08:53:09.811Z,14.03
2023-04-29T08:55:42.396Z,15.48
2023-04-29T08:58:10.387Z,13.63
2023-04-29T09:00:37.254Z,12.52
2023-04-29T09:03:18.857Z,11.32
2023-04-29T09:05:49.848Z,13.23
2023-04-29T09:08:17.241Z,13.35
2023-04-29T09:10:43.788Z,14.30
2023-04-29T09:13:26.353Z,10.95
2023-04-29T09:15:53.433Z,12.52
2023-04-29T09:18:45.740Z,11.20
2023-04-29T09:21:22.826Z,12.45
2023-04-29T09:23:57.733Z,14.90
2023-04-29T09:26:24.958Z,12.05
2023-04-29T09:29:11.865Z,12.40
2023-04-29T09:31:42.068Z,12.27
2023-04-29T09:34:09.544Z,11.20
2023-04-29T09:36:49.344Z,12.90
2023-04-29T09:39:17.466Z,10.75
2023-04-29T09:41:53.033Z,11.48
2023-04-29T09:44:21.788Z,10.87
2023-04-29T09:47:08.300Z,15.45
2023-04-29T09:49:41.080Z,11.30
2023-04-29T09:52:10.875Z,13.32
2023-04-29T09:54:38.933Z,14.40
2023-04-29T09:57:06.673Z,10.60
2023-04-29T09:59:36.131Z,9.73
2023-04-29T10:02:10.301Z,9.75
2023-04-29T10:04:40.170Z,10.90
2023-04-29T10:07:08.506Z,9.10
2023-04-29T10:09:37.869Z,10.80
2023-04-29T10:12:07.359Z,9.52
2023-04-29T10:14:43.210Z,8.98
2023-04-29T10:17:18.353Z,10.65
2023-04-29T10:19:54.357Z,10.30
2023-04-29T10:22:32.449Z,7.97
2023-04-29T10:25:01.245Z,7.97
2023-04-29T10:27:29.348Z,9.00
2023-04-29T10:29:58.388Z,9.73
2023-04-29T10:32:26.188Z,11.32
2023-04-29T10:34:55.979Z,9.33
2023-04-29T10:37:23.197Z,8.93
2023-04-29T10:40:13.555Z,17.35
2023-04-29T10:42:44.324Z,8.75
2023-04-29T10:45:32.484Z,10.25
2023-04-29T10:48:02.179Z,8.17
2023-04-29T10:50:32.808Z,8.95
2023-04-29T10:53:02.845Z,8.45
2023-04-29T10:55:29.924Z,11.43
2023-04-29T10:57:57.102Z,9.60
2023-04-29T11:00:26.965Z,8.23
2023-04-29T11:02:58.281Z,10.35
2023-04-29T11:05:36.014Z,9.52
2023-04-29T11:08:26.546Z,10.73
2023-04-29T11:10:54.130Z,9.68
2023-04-29T11:13:31.750Z,12.93
2023-04-29T11:16:05.405Z,9.07
2023-04-29T11:18:32.601Z,9.02
2023-04-29T11:21:08.162Z,8.02
2023-04-29T11:23:35.647Z,6.47
2023-04-29T11:26:03.001Z,6.40
2023-04-29T11:28:30.992Z,7.75
2023-04-29T11:30:58.588Z,7.80
2023-04-29T11:33:27.244Z,7.82
2023-04-29T11:35:54.587Z,8.20
2023-04-29T11:38:28.280Z,9.47
2023-04-29T11:40:55.879Z,9.27
2023-04-29T11:43:23.639Z,8.82
2023-04-29T11:45:52.738Z,7.80
2023-04-29T11:48:26.280Z,8.63
2023-04-29T11:50:59.495Z,7.97
2023-04-29T11:53:27.949Z,7.53
2023-04-29T11:55:55.203Z,6.40
2023-04-29T11:58:24.899Z,6.40
2023-04-29T12:00:54.415Z,7.32
2023-04-29T12:03:21.718Z,11.10
2023-04-29T12:05:52.188Z,7.15
2023-04-29T12:08:22.835Z,8.73
2023-04-29T12:10:49.629Z,7.28
2023-04-29T12:13:19.753Z,8.43
2023-04-29T12:15:47.613Z,8.67
2023-04-29T12:18:14.909Z,7.38
2023-04-29T12:20:41.526Z,7.05
2023-04-29T12:23:22.760Z,6.25
2023-04-29T12:25:50.541Z,6.47
2023-04-29T12:28:17.809Z,7.03
2023-04-29T12:30:45.963Z,6.50
2023-04-29T12:33:18.732Z,7.35
2023-04-29T12:35:45.328Z,5.15
2023-04-29T12:38:14.748Z,6.72
2023-04-29T12:40:41.292Z,6.90
2023-04-29T12:43:09.176Z,6.63
2023-04-29T12:45:36.059Z,6.72
2023-04-29T12:48:07.151Z,7.15
2023-04-29T12:50:38.026Z,7.35
2023-04-29T12:53:06.534Z,5.80
2023-04-29T12:55:34.901Z,6.85
2023-04-29T12:58:05.635Z,5.47
2023-04-29T13:00:32.555Z,6.85
2023-04-29T13:02:59.354Z,5.47
2023-04-29T13:05:26.000Z,5.70
2023-04-29T13:07:52.740Z,5.05
2023-04-29T13:10:19.294Z,5.95
2023-04-29T13:12:45.959Z,6.07
2023-04-29T13:15:12.535Z,5.68
2023-04-29T13:17:39.081Z,4.70
2023-04-29T13:20:06.592Z,7.63
2023-04-29T13:22:33.715Z,6.25
2023-04-29T13:25:00.737Z,6.57
2023-04-29T13:27:27.285Z,5.85
2023-04-29T13:29:53.841Z,4.00
2023-04-29T13:34:50.991Z,5.40
2023-04-29T13:37:17.639Z,4.93
2023-04-29T13:39:47.303Z,7.25
2023-04-29T13:42:15.655Z,5.27
2023-04-29T13:45:04.262Z,5.65
2023-04-29T13:47:31.696Z,4.72
2023-04-29T13:50:40.128Z,9.85
2023-04-29T13:56:01.614Z,6.37
2023-04-29T13:58:43.737Z,4.40
2023-04-29T14:01:17.114Z,5.05
2023-04-29T14:03:35.798Z,6.47
2023-04-29T14:06:02.947Z,5.50
2023-04-29T14:08:29.450Z,6.97
2023-04-29T14:10:56.038Z,6.05
2023-04-29T14:13:22.615Z,5.47
2023-04-29T14:15:49.157Z,7.53
2023-04-29T14:18:15.729Z,8.77
2023-04-29T14:20:42.207Z,8.00
2023-04-29T14:23:08.821Z,5.95
2023-04-29T14:25:35.407Z,6.55
2023-04-29T14:28:01.947Z,10.32
2023-04-29T14:30:28.457Z,6.22
2023-04-29T14:32:54.996Z,6.00
2023-04-29T14:35:21.538Z,5.93
2023-04-29T14:37:48.350Z,5.25
2023-04-29T14:40:14.935Z,6.05
2023-04-29T14:42:41.526Z,6.40
2023-04-29T14:45:08.866Z,7.30
2023-04-29T14:47:35.529Z,6.72
2023-04-29T14:50:02.308Z,11.48
2023-04-29T14:52:28.776Z,6.70
2023-04-29T14:54:55.541Z,6.28
2023-04-29T14:57:22.388Z,7.43
2023-04-29T14:59:49.747Z,6.80
2023-04-29T15:02:16.287Z,6.40
2023-04-29T15:04:46.025Z,6.78
2023-04-29T15:07:13.701Z,7.10
2023-04-29T15:09:40.318Z,6.43
2023-04-29T15:12:07.093Z,6.70
2023-04-29T15:14:34.044Z,7.07
2023-04-29T15:17:00.538Z,6.75
2023-04-29T15:19:27.491Z,8.80
2023-04-29T15:21:54.108Z,7.93
2023-04-29T15:24:20.610Z,8.55
2023-04-29T15:26:47.166Z,7.07
2023-04-29T15:29:13.890Z,6.78
2023-04-29T15:31:41.021Z,5.93
2023-04-29T15:34:07.557Z,5.90
2023-04-29T15:36:34.567Z,6.65
2023-04-29T15:39:01.172Z,5.28
2023-04-29T15:41:27.765Z,7.47
2023-04-29T15:43:56.537Z,6.97
2023-04-29T15:46:23.593Z,6.40
2023-04-29T15:48:50.286Z,8.35
2023-04-29T15:51:16.805Z,4.70
2023-04-29T15:53:44.538Z,7.35
2023-04-29T15:56:11.493Z,4.30
2023-04-29T15:58:38.072Z,6.43
2023-04-29T16:01:07.768Z,5.95
2023-04-29T16:03:34.744Z,5.25
2023-04-29T16:06:01.559Z,6.28
2023-04-29T16:08:28.264Z,5.55
2023-04-29T16:10:54.794Z,5.63
2023-04-29T16:13:21.316Z,6.10
2023-04-29T16:15:47.895Z,5.38
2023-04-29T16:18:14.630Z,4.43
2023-04-29T16:20:41.950Z,5.90
2023-04-29T16:23:08.766Z,6.60
2023-04-29T16:25:35.292Z,6.13
2023-04-29T16:28:02.089Z,6.53
2023-04-29T16:30:28.590Z,5.10
2023-04-29T16:32:55.179Z,6.22
2023-04-29T16:35:26.185Z,5.80
2023-04-29T16:37:53.601Z,6.25
2023-04-29T16:40:20.192Z,4.82
2023-04-29T16:42:47.129Z,5.63
2023-04-29T16:45:14.579Z,5.85
2023-04-29T16:47:41.959Z,5.60
2023-04-29T16:50:09.514Z,5.00
2023-04-29T16:52:36.030Z,4.75
2023-04-29T16:55:03.797Z,3.85
2023-04-29T16:57:30.363Z,3.00
2023-04-29T16:59:56.900Z,4.47
2023-04-29T17:02:23.499Z,3.95
2023-04-29T17:04:51.747Z,3.95
2023-04-29T17:07:20.176Z,4.78
2023-04-29T17:09:47.570Z,5.93
2023-04-29T17:12:14.295Z,3.97
2023-04-29T17:14:40.791Z,5.07
2023-04-29T17:17:07.309Z,3.85
2023-04-29T17:19:34.159Z,3.90
2023-04-29T17:22:00.659Z,6.80
2023-04-29T17:24:27.238Z,5.13
2023-04-29T17:26:53.770Z,5.05
2023-04-29T17:29:20.446Z,4.35
2023-04-29T17:31:54.125Z,5.75
2023-04-29T17:34:25.333Z,4.68
2023-04-29T17:36:53.434Z,3.43
2023-04-29T17:39:20.215Z,4.35
2023-04-29T17:41:46.808Z,4.80
2023-04-29T17:44:13.324Z,5.30
2023-04-29T17:46:40.663Z,3.78
2023-04-29T17:49:07.158Z,4.13
2023-04-29T17:51:33.637Z,3.80
2023-04-29T17:54:01.238Z,5.00
2023-04-29T17:56:27.772Z,4.38
2023-04-29T17:58:54.401Z,4.65
2023-04-29T18:01:20.921Z,5.87
2023-04-29T18:03:47.476Z,5.30
2023-04-29T18:06:14.035Z,6.65
2023-04-29T18:08:41.366Z,5.88
2023-04-29T18:11:08.945Z,5.70
2023-04-29T18:13:35.821Z,6.40
2023-04-29T18:16:02.335Z,6.53
2023-04-29T18:18:28.870Z,5.45
2023-04-29T18:20:56.312Z,6.15
2023-04-29T18:23:22.813Z,6.03
2023-04-29T18:25:49.514Z,5.47
2023-04-29T18:28:24.935Z,5.85
2023-04-29T18:30:52.278Z,7.05
2023-04-29T18:33:19.131Z,10.43
2023-04-29T18:35:45.994Z,5.72
2023-04-29T18:38:16.072Z,6.30
2023-04-29T18:40:43.456Z,9.70
2023-04-29T18:43:11.769Z,5.88
2023-04-29T18:45:38.745Z,6.72
2023-04-29T18:48:05.514Z,6.07
2023-04-29T18:50:32.493Z,5.37
2023-04-29T18:52:58.968Z,6.00
2023-04-29T18:55:26.113Z,6.75
2023-04-29T18:57:52.922Z,7.65
2023-04-29T19:00:19.622Z,5.93
2023-04-29T19:02:46.111Z,8.70
2023-04-29T19:05:13.974Z,5.53
2023-04-29T19:07:40.806Z,7.38
2023-04-29T19:10:07.903Z,6.97
2023-04-29T19:12:34.418Z,8.50
2023-04-29T19:15:01.028Z,8.10
2023-04-29T19:17:27.675Z,9.30
2023-04-29T19:19:54.995Z,8.55
2023-04-29T19:22:21.820Z,9.23
2023-04-29T19:24:48.464Z,10.63
2023-04-29T19:27:15.066Z,11.90
2023-04-29T19:29:41.812Z,9.25
2023-04-29T19:32:08.686Z,10.85
2023-04-29T19:34:35.368Z,11.80
2023-04-29T19:37:01.948Z,12.27
2023-04-29T19:39:28.883Z,11.77
2023-04-29T19:41:55.870Z,10.10
2023-04-29T19:44:22.948Z,12.20
2023-04-29T19:46:53.447Z,10.43
2023-04-29T19:49:20.520Z,11.50
2023-04-29T19:51:47.238Z,11.67
2023-04-29T19:54:13.979Z,12.32
2023-04-29T19:56:40.509Z,10.88
2023-04-29T19:59:06.998Z,15.00
2023-04-29T20:01:33.672Z,11.00
2023-04-29T20:04:00.534Z,12.03
2023-04-29T20:06:27.297Z,11.13
2023-04-29T20:08:53.939Z,11.00
2023-04-29T20:11:21.112Z,11.43
2023-04-29T20:13:48.211Z,10.73
2023-04-29T20:16:14.746Z,11.23
2023-04-29T20:18:41.614Z,11.05
2023-04-29T20:21:08.190Z,19.45
2023-04-29T20:23:34.669Z,10.32
2023-04-29T20:26:01.489Z,12.48
2023-04-29T20:28:28.009Z,11.90
2023-04-29T20:30:54.617Z,11.75
2023-04-29T20:33:21.155Z,10.43
2023-04-29T20:35:47.761Z,13.88
2023-04-29T20:38:14.438Z,10.90
2023-04-29T20:40:41.098Z,11.13
2023-04-29T20:43:07.905Z,10.82
2023-04-29T20:45:37.056Z,8.05
2023-04-29T20:48:04.045Z,12.23
2023-04-29T20:50:30.559Z,10.35
2023-04-29T20:52:57.642Z,10.77
2023-04-29T20:55:24.202Z,11.32
2023-04-29T20:57:50.768Z,10.50
2023-04-29T21:00:17.297Z,11.68
2023-04-29T21:02:43.924Z,9.57
2023-04-29T21:05:10.896Z,10.87
2023-04-29T21:07:37.795Z,9.68
2023-04-29T21:10:04.894Z,9.68
2023-04-29T21:12:31.422Z,10.05
2023-04-29T21:14:57.969Z,9.02
2023-04-29T21:17:24.500Z,10.60
2023-04-29T21:19:51.015Z,10.82
2023-04-29T21:22:17.530Z,10.32
2023-04-29T21:24:44.143Z,12.45
2023-04-29T21:27:10.812Z,9.75
2023-04-29T21:29:40.774Z,10.10
2023-04-29T21:32:08.244Z,14.10
2023-04-29T21:34:35.649Z,11.43
2023-04-29T21:37:02.170Z,13.20
2023-04-29T21:39:28.736Z,15.85
2023-04-29T21:41:55.798Z,12.53
2023-04-29T21:44:22.481Z,11.93
2023-04-29T21:46:49.215Z,9.90
2023-04-29T21:49:16.203Z,11.23
2023-04-29T21:51:43.136Z,10.98
2023-04-29T21:54:09.640Z,9.80
2023-04-29T21:56:36.210Z,9.48
2023-04-29T21:59:02.942Z,8.48
2023-04-29T22:01:39.844Z,8.63
2023-04-29T22:04:06.663Z,11.15
2023-04-29T22:06:34.348Z,11.33
2023-04-29T22:09:01.319Z,8.32
2023-04-29T22:11:28.045Z,9.57
2023-04-29T22:13:55.691Z,10.27
2023-04-29T22:16:23.517Z,10.80
2023-04-29T22:18:50.455Z,9.30
2023-04-29T22:21:17.532Z,8.45
2023-04-29T22:23:44.278Z,7.63
2023-04-29T22:26:11.051Z,8.50
2023-04-29T22:28:37.658Z,9.27
2023-04-29T22:31:04.491Z,8.37
2023-04-29T22:33:31.477Z,8.65
2023-04-29T22:35:58.013Z,8.95
2023-04-29T22:38:24.586Z,9.52
2023-04-29T22:40:54.047Z,8.43
2023-04-29T22:43:20.670Z,10.00
2023-04-29T22:45:54.296Z,8.80
2023-04-29T22:48:20.925Z,9.57
2023-04-29T22:50:59.169Z,8.68
2023-04-29T22:53:25.715Z,8.05
2023-04-29T22:55:53.691Z,8.47
2023-04-29T22:58:20.834Z,10.63
2023-04-29T23:00:51.687Z,10.27
2023-04-29T23:03:18.828Z,9.85
2023-04-29T23:05:46.294Z,9.02
2023-04-29T23:08:12.837Z,9.60
2023-04-29T23:10:39.488Z,8.88
2023-04-29T23:13:06.163Z,8.93
2023-04-29T23:15:32.723Z,9.75
2023-04-29T23:17:59.260Z,9.98
2023-04-29T23:20:25.802Z,8.73
2023-04-29T23:22:52.346Z,9.02
2023-04-29T23:25:18.972Z,9.98
2023-04-29T23:27:45.586Z,11.63
2023-04-29T23:30:12.125Z,6.97
2023-04-29T23:32:38.852Z,9.20
2023-04-29T23:35:05.727Z,9.05
2023-04-29T23:37:32.236Z,10.48
2023-04-29T23:39:58.883Z,7.38
2023-04-29T23:42:27.232Z,8.80
2023-04-29T23:44:53.729Z,8.10
2023-04-29T23:47:20.338Z,9.57
2023-04-29T23:49:47.133Z,9.35
2023-04-29T23:52:13.773Z,8.68
2023-04-29T23:54:40.333Z,8.02
2023-04-29T23:57:07.063Z,8.00
2023-04-29T23:59:33.726Z,8.63
